Terminal Aerodrome Forecast
Issued by NWS Chicago, IL

Home | Current Version | Previous Version | Graphics & Text | Print | Product List | Glossary On
Versions: 1 2 3 4 5 6 7 8 9 10 11 12 13 14 15 16 17 18 19 20 21 22 23 24 25 26 27 28
723
FTUS43 KLOT 282114 AAA
TAFRFD
TAF AMD
KRFD 282114Z 2821/2918 06009KT P6SM OVC018
     FM282200 05008KT 3SM -DZ BR SCT007 OVC015
      TEMPO 2823/2902 2SM -DZ BR BKN007
     FM290200 04008KT 3SM BR OVC007
     FM291400 03009KT P6SM BKN020
     FM291700 05009KT P6SM SCT025=

USA.gov is the U.S. government's official web portal to all federal, state and local government web resources and services.